• Join FlightAware (Why Join?)
  • Login
  • US Flag 
05:26PM EDT


 

Airport Tracker/Info


-or-


 

Live Flight TrackerFlight Track Log ✈ PDT4226 ✈ 16-Oct-2013 ✈ KBGM - KPHL

Flight Track Log - Related Links

Times and Time Zones

All times are in EDT time to prevent confusion due to time zone crossing. See the PDT4226 flight status page for this flight to view local times or setup timezone preferences in your user account.

Time Position Orientation Groundspeed Altitude Reporting Facility
EDT Latitude Longitude Course Direction KTS MPH feet Rate Location/Type
02:19PM 42.0306 -75.9214 180° South  Level Estimated
02:20PM 41.9696 -75.9240 182° South  Level FlightAware Approximate
02:21PM 41.9086 -75.9266 182° South  Level FlightAware Approximate
02:22PM 41.8496 -75.9061 154° Southeast  Level Estimated
02:23PM 41.7905 -75.8856 160° South  Level Estimated
02:24PM 41.7315 -75.8652 159° South  Level Estimated
02:25PM 41.6718 -75.8483 168° South  Level FlightAware Approximate
02:26PM 41.6127 -75.8278 153° Southeast  Level Estimated
02:27PM 41.5537 -75.8074 161° South  Level Estimated
02:28PM 41.4956 -75.7822 162° South  Level FlightAware Approximate
02:29PM 41.4376 -75.7571 162° South  Level FlightAware Approximate
02:30PM 41.3785 -75.7371 162° South  Level Estimated
02:31PM 41.3207 -75.7110 161° South  Level FlightAware Approximate
02:32PM 41.2629 -75.6849 161° South  Level FlightAware Approximate
02:33PM 41.1971 -75.6552 161° South  Level FlightAware Approximate
02:34PM 41.1313 -75.6256 161° South  Level FlightAware Approximate
02:35PM 41.0637 -75.6045 163° South  Level Estimated
02:36PM 40.9979 -75.5751 161° South  Level FlightAware Approximate
02:37PM 40.9406 -75.5395 163° South  Level FlightAware Approximate
02:38PM 40.8804 -75.5154 163° South  Level FlightAware Approximate
02:39PM 40.8202 -75.4913 163° South  Level FlightAware Approximate
02:40PM 40.7599 -75.4673 163° South  Level FlightAware Approximate
02:41PM 40.6992 -75.4540 190° South  Level FlightAware Approximate
02:42PM 40.6373 -75.4684 190° South  Level FlightAware Approximate
02:43PM 40.5753 -75.4827 190° South  Level FlightAware Approximate
02:44PM 40.5134 -75.4969 190° South  Level FlightAware Approximate
02:45PM 40.4511 -75.5082 187° South  Level FlightAware Approximate
02:46PM 40.3887 -75.5187 188° South  Level FlightAware Approximate
02:46PM 40.5500 -75.5000 143° Southeast 228 262 5,000  Level Philadelphia TRACON
02:47PM 40.3264 -75.5301 188° South  Level FlightAware Approximate
02:47PM 40.4833 -75.5000 180° South 227 261 5,000  Level Philadelphia TRACON
02:48PM 40.2641 -75.5414 188° South  Level FlightAware Approximate
02:48PM 40.4333 -75.5000 180° South 222 255 5,000  Level Philadelphia TRACON
02:49PM 40.2076 -75.5410 143° Southeast  Level FlightAware Approximate
02:49PM 40.3667 -75.4833 169° South 226 260 5,000  Level Philadelphia TRACON
02:50PM 40.1557 -75.4889 143° Southeast  Level FlightAware Approximate
02:50PM 40.3000 -75.4500 159° South 229 264 5,000  Level Philadelphia TRACON
02:51PM 40.1037 -75.4370 143° Southeast  Level FlightAware Approximate
02:51PM 40.2500 -75.4167 153° Southeast 227 261 5,000  Level Philadelphia TRACON
02:52PM 40.1833 -75.3833 159° South 229 264 5,000  Level Philadelphia TRACON
02:53PM 40.1333 -75.3667 166° South 230 265 5,000 -600 Level Philadelphia TRACON
02:54PM 40.0667 -75.3333 159° South 230 265 3,900 -1,200 Descending Philadelphia TRACON
02:55PM 40.0167 -75.3000 153° Southeast 231 266 2,700 -1,200 Descending Philadelphia TRACON
02:56PM 39.9667 -75.2667 153° Southeast 192 221 1,500 -1,020 Descending Philadelphia TRACON
02:57PM 39.9167 -75.2500 166° South 148 170 700 -840 Descending Philadelphia TRACON